createdAt,value
2022-11-01T00:06:58.318Z,0.36
2022-11-01T00:18:58.771Z,0.28
2022-11-01T00:30:59.210Z,0.60
2022-11-01T00:42:59.670Z,0.15
2022-11-01T00:55:00.152Z,3.20
2022-11-01T01:07:00.614Z,3.68
2022-11-01T01:19:01.362Z,3.09
2022-11-01T01:31:01.504Z,3.30
2022-11-01T01:43:01.935Z,1.93
2022-11-01T01:55:02.426Z,2.40
2022-11-01T02:07:02.842Z,2.28
2022-11-01T02:19:03.312Z,2.11
2022-11-01T02:31:03.761Z,1.49
2022-11-01T02:43:04.431Z,1.69
2022-11-01T02:55:04.680Z,2.13
2022-11-01T03:07:05.122Z,2.81
2022-11-01T03:19:05.571Z,2.87
2022-11-01T03:31:06.029Z,3.68
2022-11-01T03:43:06.506Z,2.99
2022-11-01T03:55:06.940Z,2.16
2022-11-01T04:07:07.364Z,1.96
2022-11-01T04:19:07.849Z,0.41
2022-11-01T04:31:08.269Z,0.19
2022-11-01T04:43:08.735Z,0.46
2022-11-01T04:55:09.184Z,1.32
2022-11-01T05:07:09.661Z,0.18
2022-11-01T05:19:10.125Z,0.25
2022-11-01T05:31:10.539Z,0.06
2022-11-01T05:43:10.987Z,0.08
2022-11-01T05:55:11.489Z,0.13
2022-11-01T06:07:11.900Z,0.80
2022-11-01T06:19:12.340Z,0.01
2022-11-01T06:31:12.791Z,0.88
2022-11-01T06:43:13.282Z,0.41
2022-11-01T06:55:14.103Z,1.24
2022-11-01T07:07:14.174Z,0.27
2022-11-01T07:19:14.607Z,0.26
2022-11-01T07:31:15.110Z,0.48
2022-11-01T07:43:15.532Z,0.77
2022-11-01T07:55:16.064Z,0.82
2022-11-01T08:07:16.456Z,1.38
2022-11-01T08:19:16.898Z,0.78
2022-11-01T08:43:17.817Z,0.63
2022-11-01T08:55:18.247Z,0.48
2022-11-01T09:07:18.737Z,0.40
2022-11-01T09:19:19.117Z,0.52
2022-11-01T09:31:21.303Z,0.73
2022-11-01T09:43:20.037Z,0.30
2022-11-01T09:55:20.532Z,0.50
2022-11-01T10:07:20.993Z,0.35
2022-11-01T10:19:21.432Z,1.26
2022-11-01T10:31:21.869Z,0.66
2022-11-01T10:43:22.321Z,1.06
2022-11-01T10:55:22.763Z,0.37
2022-11-01T11:07:24.228Z,0.14
2022-11-01T11:19:23.643Z,0.06
2022-11-01T11:31:24.173Z,0.63
2022-11-01T11:43:24.588Z,0.99
2022-11-01T11:55:25.011Z,0.93
2022-11-01T12:07:25.515Z,1.08
2022-11-01T12:19:25.981Z,0.77
2022-11-01T12:31:31.025Z,1.01
2022-11-01T12:43:26.888Z,1.09
2022-11-01T12:55:27.274Z,1.28
2022-11-01T13:07:27.771Z,0.69
2022-11-01T13:19:28.222Z,0.48
2022-11-01T13:31:28.693Z,0.32
2022-11-01T13:43:29.126Z,0.35
2022-11-01T13:55:29.550Z,0.44
2022-11-01T14:07:30.025Z,0.94
2022-11-01T14:19:30.882Z,0.33
2022-11-01T14:31:30.925Z,0.68
2022-11-01T14:43:31.409Z,0.52
2022-11-01T14:55:31.826Z,0.44
2022-11-01T15:07:32.267Z,0.62
2022-11-01T15:19:32.753Z,0.61
2022-11-01T15:31:33.219Z,0.49
2022-11-01T15:43:33.625Z,0.17
2022-11-01T15:55:34.097Z,0.69
2022-11-01T16:07:34.539Z,0.41
2022-11-01T16:19:35.026Z,0.00
2022-11-01T16:31:35.476Z,0.05
2022-11-01T16:43:35.925Z,0.08
2022-11-01T16:55:37.382Z,0.11
2022-11-01T17:07:36.843Z,0.00
2022-11-01T17:19:37.249Z,0.59
2022-11-01T17:31:37.744Z,0.06
2022-11-01T17:43:38.192Z,0.05
2022-11-01T17:55:38.624Z,0.07
2022-11-01T18:07:39.078Z,0.27
2022-11-01T18:19:39.551Z,0.62
2022-11-01T18:31:39.984Z,0.16
2022-11-01T18:43:40.456Z,0.01
2022-11-01T18:55:40.911Z,0.07
2022-11-01T19:08:08.941Z,0.66
2022-11-01T19:19:41.811Z,0.00
2022-11-01T19:31:42.306Z,0.50
2022-11-01T19:43:42.739Z,0.16
2022-11-01T19:55:43.218Z,0.00
2022-11-01T20:07:43.644Z,0.09
2022-11-01T20:19:44.079Z,0.41
2022-11-01T20:31:44.502Z,0.09
2022-11-01T20:43:44.975Z,0.00
2022-11-01T20:55:45.393Z,0.35
2022-11-01T21:07:47.962Z,0.57
2022-11-01T21:19:46.329Z,0.14
2022-11-01T21:31:46.778Z,0.00
2022-11-01T21:43:47.228Z,0.39
2022-11-01T21:55:47.722Z,0.49
2022-11-01T22:07:48.145Z,0.84
2022-11-01T22:19:48.583Z,0.67
2022-11-01T22:31:49.029Z,0.10
2022-11-01T22:43:49.514Z,0.10
2022-11-01T22:55:49.954Z,0.02
2022-11-01T23:07:50.382Z,0.01
2022-11-01T23:19:50.833Z,0.13
2022-11-01T23:31:51.342Z,0.02
2022-11-01T23:43:51.741Z,0.00
2022-11-01T23:55:52.217Z,1.22
